Time;durP1;ratioP1;P1;durP2;ratioP2;P2;SDS_P1;SDS_P2;PMS_P1;PMS_P2;Temp;Humidity;BMP_temperature;BMP_pressure;BME280_temperature;BME280_humidity;BME280_pressure;Samples;Min_cycle;Max_cycle;Signal;HPM_P1;HPM_P2
2021/12/18 00:01:57;;;;;;;19.67;17.42;;;4.30;99.90;;;;;;5063064;28;20562;-80
2021/12/18 00:04:23;;;;;;;20.15;17.17;;;4.30;99.90;;;;;;5070762;28;20299;-80
2021/12/18 00:06:52;;;;;;;19.70;17.70;;;4.30;99.90;;;;;;5060194;28;20190;-80
2021/12/18 00:09:19;;;;;;;19.75;17.65;;;4.30;99.90;;;;;;5055475;28;20376;-80
2021/12/18 00:11:48;;;;;;;19.50;17.17;;;4.30;99.90;;;;;;5073677;28;20220;-80
2021/12/18 00:14:15;;;;;;;22.52;17.98;;;4.30;99.90;;;;;;5062804;28;20204;-80
2021/12/18 00:16:42;;;;;;;19.00;16.65;;;4.30;99.90;;;;;;5051279;28;20196;-80
2021/12/18 00:19:09;;;;;;;19.98;17.25;;;4.30;99.90;;;;;;5061197;28;20743;-80
2021/12/18 00:21:37;;;;;;;21.33;18.25;;;4.30;99.90;;;;;;5055671;28;20212;-80
2021/12/18 00:24:06;;;;;;;20.40;18.23;;;4.40;99.90;;;;;;5036753;28;20218;-80
2021/12/18 00:26:33;;;;;;;19.55;17.42;;;4.50;99.90;;;;;;5067782;28;20196;-80
2021/12/18 00:29:01;;;;;;;19.30;17.08;;;4.50;99.90;;;;;;5052126;28;20304;-80
2021/12/18 00:31:28;;;;;;;19.65;16.60;;;4.40;99.90;;;;;;5054248;28;20207;-80
2021/12/18 00:33:55;;;;;;;18.20;16.25;;;4.40;99.90;;;;;;5052919;28;20308;-80
2021/12/18 00:36:22;;;;;;;19.63;17.13;;;4.40;99.90;;;;;;5064856;28;20235;-80
2021/12/18 00:38:49;;;;;;;18.70;16.70;;;4.40;99.90;;;;;;5052732;28;20287;-80
2021/12/18 00:41:35;;;;;;;18.30;16.40;;;4.40;99.90;;;;;;5053144;28;20205;-80
2021/12/18 00:44:03;;;;;;;18.63;15.95;;;4.40;99.90;;;;;;5051661;28;20212;-80
2021/12/18 00:46:32;;;;;;;19.08;16.80;;;4.30;99.90;;;;;;5059783;28;20197;-80
2021/12/18 00:49:00;;;;;;;19.63;16.95;;;4.30;99.90;;;;;;5054999;28;20994;-80
2021/12/18 00:51:28;;;;;;;19.90;16.40;;;4.20;99.90;;;;;;5052755;28;20199;-80
2021/12/18 00:53:55;;;;;;;18.95;16.45;;;4.20;99.90;;;;;;5052665;28;20316;-80
2021/12/18 00:56:23;;;;;;;22.27;17.95;;;4.20;99.90;;;;;;5052913;28;20204;-80
2021/12/18 00:58:50;;;;;;;19.55;16.85;;;4.10;99.90;;;;;;5058054;28;20189;-80
2021/12/18 01:01:19;;;;;;;19.13;16.80;;;4.10;99.90;;;;;;5056933;28;20193;-80
2021/12/18 01:03:47;;;;;;;19.92;17.70;;;4.10;99.90;;;;;;5056411;28;20291;-80
2021/12/18 01:06:14;;;;;;;21.55;18.15;;;4.10;99.90;;;;;;5052663;28;20201;-80
2021/12/18 01:08:41;;;;;;;23.20;17.67;;;4.10;99.90;;;;;;5062974;28;20223;-80
2021/12/18 01:11:30;;;;;;;21.70;18.33;;;4.00;99.90;;;;;;5060001;28;20193;-80
2021/12/18 01:14:18;;;;;;;21.05;17.67;;;4.00;99.90;;;;;;5052086;28;20706;-80
2021/12/18 01:16:55;;;;;;;21.67;18.85;;;4.00;99.90;;;;;;5056502;28;20193;-80
2021/12/18 01:24:51;;;;;;;20.23;17.33;;;4.00;99.90;;;;;;5059153;28;20258;-80
2021/12/18 01:27:18;;;;;;;21.15;17.95;;;4.10;99.90;;;;;;5035715;28;20206;-80
2021/12/18 01:29:46;;;;;;;19.10;17.10;;;4.00;99.90;;;;;;5033518;28;20328;-80
2021/12/18 01:32:13;;;;;;;22.00;19.63;;;3.90;99.90;;;;;;5051749;28;20209;-80
2021/12/18 01:34:40;;;;;;;19.40;17.35;;;3.80;99.90;;;;;;5051994;28;20220;-80
2021/12/18 01:37:07;;;;;;;22.27;18.38;;;3.80;99.90;;;;;;5051446;28;20208;-80
2021/12/18 01:39:35;;;;;;;21.27;18.00;;;3.80;99.90;;;;;;5051409;28;20235;-80
2021/12/18 01:42:32;;;;;;;19.42;17.45;;;3.80;99.90;;;;;;5051809;28;20240;-80
2021/12/18 01:45:12;;;;;;;20.17;17.63;;;3.90;99.90;;;;;;5056078;28;20190;-80
2021/12/18 01:53:11;;;;;;;19.77;15.98;;;3.90;99.90;;;;;;5049679;28;20572;-80
2021/12/18 01:55:40;;;;;;;18.42;16.50;;;3.90;99.90;;;;;;5045357;28;20193;-80
2021/12/18 01:58:09;;;;;;;19.02;16.83;;;3.90;99.90;;;;;;5031625;28;20209;-80
2021/12/18 02:00:39;;;;;;;19.23;17.23;;;3.90;99.90;;;;;;5039808;28;20285;-80
2021/12/18 02:03:06;;;;;;;20.35;17.52;;;3.80;99.90;;;;;;5052969;28;20227;-80
2021/12/18 02:05:34;;;;;;;21.08;18.42;;;3.80;99.90;;;;;;5051102;28;20764;-80
2021/12/18 02:08:01;;;;;;;21.27;18.27;;;3.80;99.90;;;;;;5051533;28;20217;-80
2021/12/18 02:10:31;;;;;;;19.25;17.23;;;3.80;99.90;;;;;;5068752;28;20193;-80
2021/12/18 02:13:05;;;;;;;20.67;17.55;;;3.90;99.90;;;;;;5069683;28;20224;-80
2021/12/18 02:21:12;;;;;;;20.75;17.75;;;3.80;99.90;;;;;;5043061;28;20192;-80
2021/12/18 02:23:40;;;;;;;21.60;17.73;;;3.80;99.90;;;;;;5050966;28;20286;-80
2021/12/18 02:26:07;;;;;;;20.42;17.48;;;3.80;99.90;;;;;;5053232;28;20188;-80
2021/12/18 02:28:34;;;;;;;23.98;17.77;;;3.80;99.90;;;;;;5035839;28;20249;-80
2021/12/18 02:31:02;;;;;;;22.17;19.17;;;3.80;99.90;;;;;;5052466;28;20285;-80
2021/12/18 02:33:29;;;;;;;23.15;18.65;;;3.80;99.90;;;;;;5055607;28;20243;-80
2021/12/18 02:35:58;;;;;;;21.70;17.67;;;3.90;99.90;;;;;;5031216;28;20288;-80
2021/12/18 02:38:34;;;;;;;22.30;17.58;;;3.80;99.90;;;;;;5056721;28;20200;-80
2021/12/18 02:41:08;;;;;;;22.27;17.95;;;3.80;99.90;;;;;;5031191;28;20286;-80
2021/12/18 02:43:37;;;;;;;23.55;17.80;;;3.80;99.90;;;;;;5052884;28;20216;-80
2021/12/18 02:46:07;;;;;;;21.75;17.90;;;3.80;99.90;;;;;;5047897;28;20287;-80
2021/12/18 02:48:36;;;;;;;22.67;17.85;;;3.80;99.90;;;;;;5052805;28;20217;-80
2021/12/18 02:51:04;;;;;;;19.52;16.92;;;3.80;99.90;;;;;;5054184;28;20251;-80
2021/12/18 02:53:33;;;;;;;21.48;17.60;;;3.90;99.90;;;;;;5054396;28;20225;-80
2021/12/18 02:56:03;;;;;;;22.67;18.15;;;3.90;99.90;;;;;;5055088;28;20207;-80
2021/12/18 02:58:31;;;;;;;25.02;19.05;;;3.80;99.90;;;;;;5054431;28;20204;-80
2021/12/18 03:01:00;;;;;;;24.83;18.48;;;3.80;99.90;;;;;;5064652;28;20193;-80
2021/12/18 03:03:31;;;;;;;22.13;18.30;;;3.80;99.90;;;;;;5054790;28;20311;-80
2021/12/18 03:06:12;;;;;;;22.27;18.67;;;3.80;99.90;;;;;;5054799;28;20193;-80
2021/12/18 03:08:48;;;;;;;24.65;17.63;;;3.70;99.90;;;;;;5053524;28;20714;-80
2021/12/18 03:25:00;;;;;;;22.65;17.98;;;3.50;99.90;;;;;;5066966;28;20204;-80
2021/12/18 03:27:28;;;;;;;23.38;18.25;;;3.50;99.90;;;;;;5060768;28;20193;-80
2021/12/18 03:29:56;;;;;;;24.20;19.25;;;3.50;99.90;;;;;;5064235;28;20208;-80
2021/12/18 03:32:23;;;;;;;22.02;17.73;;;3.40;99.90;;;;;;5052981;28;20228;-80
2021/12/18 03:34:51;;;;;;;23.15;18.73;;;3.40;99.90;;;;;;5054105;28;20276;-80
2021/12/18 03:37:19;;;;;;;24.70;18.83;;;3.40;99.90;;;;;;5065578;28;20192;-80
2021/12/18 03:39:47;;;;;;;24.35;18.35;;;3.40;99.90;;;;;;5073897;28;20529;-80
2021/12/18 03:42:16;;;;;;;24.33;18.42;;;3.40;99.90;;;;;;5053630;28;20213;-80
2021/12/18 03:44:43;;;;;;;22.75;16.73;;;3.40;99.90;;;;;;5053919;28;20284;-80
2021/12/18 03:47:11;;;;;;;24.13;18.83;;;3.40;99.90;;;;;;5054146;28;20189;-79
2021/12/18 03:49:38;;;;;;;23.55;17.88;;;3.40;99.90;;;;;;5061925;28;20307;-80
2021/12/18 03:52:05;;;;;;;21.45;17.45;;;3.50;99.90;;;;;;5055599;28;20700;-80
2021/12/18 03:54:32;;;;;;;24.00;19.27;;;3.50;99.90;;;;;;5053741;28;20296;-80
2021/12/18 03:56:59;;;;;;;21.83;16.85;;;3.50;99.90;;;;;;5053130;28;20884;-80
2021/12/18 03:59:27;;;;;;;21.02;16.42;;;3.50;99.90;;;;;;5065941;28;20684;-80
2021/12/18 04:01:54;;;;;;;20.63;16.05;;;3.40;99.90;;;;;;5059264;28;20262;-80
2021/12/18 04:04:22;;;;;;;22.95;16.95;;;3.30;99.90;;;;;;5058187;28;20201;-80
2021/12/18 04:06:48;;;;;;;21.10;16.40;;;3.30;99.90;;;;;;5053813;28;20205;-80
2021/12/18 04:09:15;;;;;;;21.17;15.38;;;3.30;99.90;;;;;;5061757;28;20242;-80
2021/12/18 04:11:43;;;;;;;23.75;16.92;;;3.20;99.90;;;;;;5054550;28;20261;-80
2021/12/18 04:14:11;;;;;;;20.58;16.58;;;3.20;99.90;;;;;;5053120;28;20217;-80
2021/12/18 04:16:40;;;;;;;22.58;16.58;;;3.20;99.90;;;;;;5053482;28;20198;-80
2021/12/18 04:19:07;;;;;;;22.05;15.93;;;3.10;99.90;;;;;;5058146;28;20276;-80
2021/12/18 04:21:35;;;;;;;22.45;16.48;;;3.10;99.90;;;;;;5053314;28;20200;-79
2021/12/18 04:24:05;;;;;;;19.80;15.60;;;3.10;99.90;;;;;;5053392;28;20259;-80
2021/12/18 04:26:32;;;;;;;21.20;15.70;;;3.10;99.90;;;;;;5052534;28;20205;-80
2021/12/18 04:29:01;;;;;;;21.00;15.20;;;3.10;99.90;;;;;;5058583;28;20270;-80
2021/12/18 04:31:28;;;;;;;19.92;15.68;;;3.10;99.90;;;;;;5059714;28;20193;-80
2021/12/18 04:33:57;;;;;;;21.65;15.60;;;3.00;99.90;;;;;;5033515;28;20228;-80
2021/12/18 04:36:24;;;;;;;21.95;16.80;;;3.00;99.90;;;;;;5061638;28;20188;-80
2021/12/18 04:38:51;;;;;;;22.30;17.45;;;3.00;99.90;;;;;;5072455;28;20201;-80
2021/12/18 04:41:22;;;;;;;23.48;16.95;;;3.00;99.90;;;;;;5053269;28;20228;-80
2021/12/18 04:43:50;;;;;;;21.20;15.40;;;2.90;99.90;;;;;;5033051;28;20212;-80
2021/12/18 04:46:17;;;;;;;22.88;16.63;;;2.80;99.90;;;;;;5049264;28;20197;-80
2021/12/18 04:48:44;;;;;;;23.08;16.83;;;2.80;99.90;;;;;;5072069;28;20796;-80
2021/12/18 04:51:12;;;;;;;21.25;16.13;;;2.90;99.90;;;;;;5063638;28;20194;-80
2021/12/18 04:53:39;;;;;;;23.90;16.52;;;2.90;99.90;;;;;;5052513;28;20241;-80
2021/12/18 04:56:06;;;;;;;19.83;15.65;;;2.90;99.90;;;;;;5052356;28;20280;-80
2021/12/18 04:58:33;;;;;;;23.23;17.38;;;2.90;99.90;;;;;;5053494;28;20236;-80
2021/12/18 05:01:00;;;;;;;23.50;16.83;;;2.90;99.90;;;;;;5053721;28;20844;-80
2021/12/18 05:03:27;;;;;;;20.70;15.73;;;3.00;99.90;;;;;;5032820;28;20308;-80
2021/12/18 05:05:54;;;;;;;18.65;15.20;;;3.00;99.90;;;;;;5032728;28;20288;-80
2021/12/18 05:08:22;;;;;;;20.27;14.40;;;3.00;99.90;;;;;;5032405;28;20289;-80
2021/12/18 05:10:50;;;;;;;22.92;15.95;;;3.10;99.90;;;;;;5052381;28;20232;-80
2021/12/18 05:13:16;;;;;;;23.02;17.10;;;3.10;99.90;;;;;;5051013;28;20308;-80
2021/12/18 05:15:43;;;;;;;20.25;15.82;;;3.10;99.90;;;;;;5052382;28;20200;-80
2021/12/18 05:18:10;;;;;;;20.05;15.38;;;3.10;99.90;;;;;;5054178;28;20201;-80
2021/12/18 05:20:38;;;;;;;20.42;14.65;;;3.00;99.90;;;;;;5052416;28;20201;-80
2021/12/18 05:23:04;;;;;;;20.58;15.00;;;3.10;99.90;;;;;;5051853;28;20300;-80
2021/12/18 05:25:33;;;;;;;19.42;15.18;;;3.10;99.90;;;;;;5063752;28;20753;-79
2021/12/18 05:28:00;;;;;;;20.13;15.15;;;3.10;99.90;;;;;;5066067;28;20312;-80
2021/12/18 05:30:27;;;;;;;22.50;16.02;;;3.00;99.90;;;;;;5066514;28;20231;-80
2021/12/18 05:32:55;;;;;;;20.33;14.77;;;3.00;99.90;;;;;;5051831;28;20221;-80
2021/12/18 05:35:22;;;;;;;19.83;15.15;;;3.00;99.90;;;;;;5045824;28;20204;-80
2021/12/18 05:37:51;;;;;;;20.35;15.57;;;3.00;99.90;;;;;;5065539;28;20242;-80
2021/12/18 05:40:20;;;;;;;20.25;15.20;;;3.10;99.90;;;;;;5071794;28;20193;-79
2021/12/18 05:42:49;;;;;;;19.02;14.77;;;3.10;99.90;;;;;;5051485;28;20232;-80
2021/12/18 05:45:17;;;;;;;19.52;14.60;;;3.10;99.90;;;;;;5052042;28;20208;-80
2021/12/18 05:47:44;;;;;;;18.65;15.00;;;3.20;99.90;;;;;;5044173;28;20281;-80
2021/12/18 05:50:12;;;;;;;17.17;13.70;;;3.30;99.90;;;;;;5069280;28;20285;-80
2021/12/18 05:52:40;;;;;;;22.67;16.50;;;3.20;99.90;;;;;;5052507;28;20304;-80
2021/12/18 05:55:09;;;;;;;19.65;14.27;;;3.30;99.90;;;;;;5052244;28;20239;-80
2021/12/18 05:57:35;;;;;;;21.00;15.73;;;3.30;99.90;;;;;;5053240;28;20197;-80
2021/12/18 06:00:06;;;;;;;18.88;14.18;;;3.30;99.90;;;;;;5068859;28;20199;-80
2021/12/18 06:02:34;;;;;;;20.52;13.63;;;3.30;99.90;;;;;;5047068;28;20782;-80
2021/12/18 06:05:01;;;;;;;17.35;13.68;;;3.30;99.90;;;;;;5051010;28;20197;-81
2021/12/18 06:07:30;;;;;;;19.35;13.68;;;3.20;99.90;;;;;;5048573;28;20193;-82
2021/12/18 06:09:57;;;;;;;18.63;13.73;;;3.30;99.90;;;;;;5050758;28;20312;-82
2021/12/18 06:12:25;;;;;;;17.80;14.48;;;3.30;99.90;;;;;;5040103;28;21316;-81
2021/12/18 06:14:53;;;;;;;17.40;13.15;;;3.30;99.90;;;;;;5050300;28;20282;-80
2021/12/18 06:17:21;;;;;;;14.95;11.85;;;3.40;99.90;;;;;;5049905;28;20735;-80
2021/12/18 06:19:48;;;;;;;18.75;13.32;;;3.40;99.90;;;;;;5067536;28;20283;-80
2021/12/18 06:22:15;;;;;;;15.95;12.93;;;3.40;99.90;;;;;;5071239;28;20295;-80
2021/12/18 06:24:42;;;;;;;14.20;11.80;;;3.40;99.90;;;;;;5074712;28;20200;-80
2021/12/18 06:27:09;;;;;;;14.80;10.77;;;3.40;99.90;;;;;;5067312;28;20196;-80
2021/12/18 06:29:38;;;;;;;16.58;11.50;;;3.30;99.90;;;;;;5055423;28;20235;-80
2021/12/18 06:32:06;;;;;;;15.85;11.30;;;3.30;99.90;;;;;;5056975;28;20209;-80
2021/12/18 06:34:35;;;;;;;12.65;10.30;;;3.20;99.90;;;;;;5075105;28;20223;-80
2021/12/18 06:37:02;;;;;;;11.57;10.38;;;3.20;99.90;;;;;;5075294;28;20194;-80
2021/12/18 06:39:29;;;;;;;13.25;10.80;;;3.20;99.90;;;;;;5074990;28;20258;-80
2021/12/18 06:41:56;;;;;;;13.70;10.55;;;3.10;99.90;;;;;;5064384;28;20692;-80
2021/12/18 06:44:23;;;;;;;14.20;11.30;;;3.10;99.90;;;;;;5055136;28;20193;-80
2021/12/18 06:46:50;;;;;;;12.80;10.80;;;3.20;99.90;;;;;;5061337;28;20227;-80
2021/12/18 06:49:17;;;;;;;12.93;9.77;;;3.20;99.90;;;;;;5075087;28;20243;-80
2021/12/18 06:51:46;;;;;;;11.82;9.98;;;3.20;99.90;;;;;;5075028;28;20231;-80
2021/12/18 06:54:13;;;;;;;13.23;11.05;;;3.20;99.90;;;;;;5074945;28;20659;-80
2021/12/18 06:56:40;;;;;;;14.65;10.75;;;3.30;99.90;;;;;;5070854;28;20275;-80
2021/12/18 06:59:07;;;;;;;14.13;10.15;;;3.20;99.90;;;;;;5074755;28;20279;-79
2021/12/18 07:01:34;;;;;;;13.93;10.63;;;3.30;99.90;;;;;;5056728;28;20214;-80
2021/12/18 07:04:01;;;;;;;14.30;10.30;;;3.20;99.90;;;;;;5062367;28;20220;-80
2021/12/18 07:06:28;;;;;;;14.15;11.13;;;3.30;99.90;;;;;;5055022;28;20639;-79
2021/12/18 07:08:57;;;;;;;15.00;11.63;;;3.30;99.90;;;;;;5051885;28;20190;-80
2021/12/18 07:11:24;;;;;;;14.55;11.95;;;3.30;99.90;;;;;;5043038;28;20232;-81
2021/12/18 07:13:51;;;;;;;15.27;10.48;;;3.40;99.90;;;;;;5045874;28;20201;-80
2021/12/18 07:16:18;;;;;;;12.38;10.32;;;3.40;99.90;;;;;;5046458;28;20288;-80
2021/12/18 07:18:46;;;;;;;13.55;10.73;;;3.40;99.90;;;;;;5048683;28;20274;-82
2021/12/18 07:21:13;;;;;;;12.45;10.25;;;3.50;99.90;;;;;;5047025;28;20220;-79
2021/12/18 07:23:40;;;;;;;12.07;9.88;;;3.50;99.90;;;;;;5050252;28;20649;-80
2021/12/18 07:26:08;;;;;;;11.55;9.90;;;3.60;99.90;;;;;;5052606;28;20197;-79
2021/12/18 07:28:35;;;;;;;13.30;10.43;;;3.60;99.90;;;;;;5049704;28;20232;-79
2021/12/18 07:31:02;;;;;;;11.50;9.95;;;3.70;99.90;;;;;;5050719;28;20311;-79
2021/12/18 07:33:29;;;;;;;10.27;9.07;;;3.70;99.90;;;;;;5047047;28;20197;-80
2021/12/18 07:35:56;;;;;;;12.00;9.63;;;3.80;99.90;;;;;;5048019;28;20205;-80
2021/12/18 07:38:23;;;;;;;12.88;10.38;;;3.80;99.90;;;;;;5048517;28;20197;-80
2021/12/18 07:40:50;;;;;;;12.13;9.73;;;3.90;99.90;;;;;;5052663;28;20197;-80
2021/12/18 07:43:19;;;;;;;12.98;10.07;;;3.90;99.90;;;;;;5049561;28;21803;-80
2021/12/18 07:45:46;;;;;;;13.10;10.23;;;4.00;99.90;;;;;;5048131;28;20223;-80
2021/12/18 07:48:13;;;;;;;11.90;9.32;;;4.00;99.90;;;;;;5044656;28;20235;-80
2021/12/18 07:50:40;;;;;;;10.55;9.18;;;4.00;99.90;;;;;;5049169;28;20761;-81
2021/12/18 07:53:07;;;;;;;12.98;8.30;;;4.10;99.90;;;;;;5047683;28;20205;-78
2021/12/18 07:55:34;;;;;;;12.00;10.00;;;4.10;99.90;;;;;;5038948;28;20289;-80
2021/12/18 07:58:01;;;;;;;11.50;9.35;;;4.30;99.90;;;;;;5035027;28;20281;-82
2021/12/18 08:00:32;;;;;;;13.75;9.65;;;4.50;99.90;;;;;;5045818;28;20193;-82
2021/12/18 08:02:59;;;;;;;12.50;9.82;;;4.40;99.90;;;;;;5047626;28;20786;-88
2021/12/18 08:05:26;;;;;;;10.07;8.95;;;4.30;99.90;;;;;;5032460;28;20214;-88
2021/12/18 08:07:53;;;;;;;12.70;8.88;;;4.30;99.90;;;;;;5039019;28;20194;-83
2021/12/18 08:10:20;;;;;;;12.77;9.48;;;4.30;99.90;;;;;;5042517;28;20221;-84
2021/12/18 08:12:47;;;;;;;11.15;9.05;;;4.30;99.90;;;;;;5045388;28;20220;-84
2021/12/18 08:15:14;;;;;;;11.35;8.93;;;4.30;99.90;;;;;;5046614;28;20193;-83
2021/12/18 08:17:42;;;;;;;11.85;9.18;;;4.40;99.90;;;;;;5047126;28;20231;-84
2021/12/18 08:20:11;;;;;;;11.00;8.90;;;4.40;99.90;;;;;;5043104;28;20748;-83
2021/12/18 08:22:38;;;;;;;11.10;9.23;;;4.50;99.90;;;;;;5039964;28;20766;-82
2021/12/18 08:25:07;;;;;;;12.10;10.07;;;4.50;99.90;;;;;;5036221;28;20281;-82
2021/12/18 08:27:34;;;;;;;11.60;9.38;;;4.50;99.90;;;;;;5035197;28;20229;-83
2021/12/18 08:30:02;;;;;;;11.20;8.95;;;4.50;99.90;;;;;;5032727;28;20247;-82
2021/12/18 08:32:29;;;;;;;11.23;9.50;;;4.40;99.90;;;;;;5038776;28;20225;-82
2021/12/18 08:34:57;;;;;;;13.65;10.68;;;4.40;99.90;;;;;;5042167;28;20201;-82
2021/12/18 08:37:24;;;;;;;10.75;9.13;;;4.40;99.90;;;;;;5045816;28;20202;-82
2021/12/18 08:39:51;;;;;;;10.88;8.85;;;4.50;99.90;;;;;;5040315;28;20201;-82
2021/12/18 08:42:19;;;;;;;11.80;9.80;;;4.50;99.90;;;;;;5037373;28;20299;-82
2021/12/18 08:44:46;;;;;;;11.93;9.93;;;4.40;99.90;;;;;;5038902;28;20194;-82
2021/12/18 08:47:14;;;;;;;11.55;9.63;;;4.40;99.90;;;;;;5038856;28;20327;-82
2021/12/18 08:49:41;;;;;;;11.32;8.93;;;4.40;99.90;;;;;;5044291;28;20668;-82
2021/12/18 08:52:10;;;;;;;13.43;10.43;;;4.30;99.90;;;;;;5036460;28;20221;-82
2021/12/18 08:54:36;;;;;;;11.43;9.20;;;4.30;99.90;;;;;;5038327;28;20206;-82
2021/12/18 08:57:04;;;;;;;10.48;8.70;;;4.30;99.90;;;;;;5046428;28;20355;-82
2021/12/18 08:59:32;;;;;;;11.57;9.68;;;4.30;99.90;;;;;;5042871;28;20613;-82
2021/12/18 09:01:59;;;;;;;12.82;9.80;;;4.30;99.90;;;;;;5036749;28;20220;-82
2021/12/18 09:04:25;;;;;;;13.10;10.35;;;4.30;99.90;;;;;;5041245;28;20193;-82
2021/12/18 09:06:52;;;;;;;13.35;10.05;;;4.20;99.90;;;;;;5029496;28;20305;-82
2021/12/18 09:09:21;;;;;;;15.15;10.82;;;4.20;99.90;;;;;;5031664;28;20197;-83
2021/12/18 09:11:48;;;;;;;12.32;10.23;;;4.30;99.90;;;;;;5032414;28;20704;-82
2021/12/18 09:14:15;;;;;;;13.20;9.60;;;4.30;99.90;;;;;;5036000;28;20247;-82
2021/12/18 09:16:42;;;;;;;14.13;10.80;;;4.40;99.90;;;;;;5037053;28;20534;-82
2021/12/18 09:19:09;;;;;;;14.15;11.38;;;4.40;99.90;;;;;;5037488;28;20281;-82
2021/12/18 09:21:36;;;;;;;15.43;11.43;;;4.30;99.90;;;;;;5035499;28;20217;-81
2021/12/18 09:24:04;;;;;;;14.43;11.30;;;4.30;99.90;;;;;;5034696;28;20197;-82
2021/12/18 09:26:32;;;;;;;13.95;11.27;;;4.30;99.90;;;;;;5034844;28;20201;-82
2021/12/18 09:29:00;;;;;;;14.10;10.85;;;4.30;99.90;;;;;;5045619;28;20285;-81
2021/12/18 09:31:28;;;;;;;12.95;10.18;;;4.30;99.90;;;;;;5037447;28;20253;-81
2021/12/18 09:33:55;;;;;;;12.82;10.15;;;4.30;99.90;;;;;;5025192;28;20205;-82
2021/12/18 09:36:23;;;;;;;11.40;9.70;;;4.30;99.90;;;;;;5033754;28;20216;-82
2021/12/18 09:38:51;;;;;;;13.77;10.43;;;4.40;99.90;;;;;;5044741;28;20193;-82
2021/12/18 09:41:17;;;;;;;13.18;10.55;;;4.40;99.90;;;;;;5027479;28;20221;-82
2021/12/18 09:43:47;;;;;;;12.07;10.13;;;4.40;99.90;;;;;;5037410;28;20200;-83
2021/12/18 09:46:15;;;;;;;12.55;10.20;;;4.30;99.90;;;;;;5038826;28;20293;-82
2021/12/18 09:48:44;;;;;;;11.65;9.90;;;4.30;99.90;;;;;;5044189;28;20201;-82
2021/12/18 09:51:21;;;;;;;12.25;10.18;;;4.20;99.90;;;;;;5037993;28;20689;-82
2021/12/18 09:53:50;;;;;;;12.88;9.93;;;4.20;99.90;;;;;;5038536;28;20212;-83
2021/12/18 09:56:17;;;;;;;12.10;10.02;;;4.20;99.90;;;;;;5049339;28;20193;-83
2021/12/18 09:58:44;;;;;;;11.32;9.23;;;4.30;99.90;;;;;;5038069;28;20204;-83
2021/12/18 10:01:12;;;;;;;11.82;9.20;;;4.40;99.90;;;;;;5038275;28;20217;-84
2021/12/18 10:03:48;;;;;;;12.38;9.13;;;4.50;99.90;;;;;;5042832;28;20216;-84
2021/12/18 10:06:38;;;;;;;11.63;9.52;;;4.50;99.90;;;;;;5036193;28;20193;-84
2021/12/18 10:09:08;;;;;;;13.80;10.02;;;4.50;99.90;;;;;;5032921;28;20220;-79
2021/12/18 10:11:44;;;;;;;13.00;9.23;;;4.30;99.90;;;;;;5036685;28;20227;-85
2021/12/18 10:14:11;;;;;;;12.43;9.35;;;4.20;99.90;;;;;;5040305;28;20727;-83
2021/12/18 10:16:45;;;;;;;12.55;9.15;;;4.20;99.90;;;;;;5040261;28;20509;-84
2021/12/18 10:19:26;;;;;;;13.60;9.85;;;4.20;99.90;;;;;;5043449;28;20192;-84
2021/12/18 10:21:57;;;;;;;11.55;8.73;;;4.20;99.90;;;;;;5041180;28;20220;-79
2021/12/18 10:24:25;;;;;;;11.45;8.57;;;4.20;99.90;;;;;;5036669;28;20229;-84
2021/12/18 10:26:52;;;;;;;10.65;9.00;;;4.20;99.90;;;;;;5030108;28;20276;-82
2021/12/18 10:29:34;;;;;;;11.50;9.45;;;4.20;99.90;;;;;;5033609;28;20320;-83
2021/12/18 10:32:07;;;;;;;11.20;9.30;;;4.30;99.90;;;;;;5037512;28;21139;-82
2021/12/18 10:34:33;;;;;;;13.30;9.07;;;4.30;99.90;;;;;;5048241;28;20292;-82
2021/12/18 10:37:16;;;;;;;11.48;9.13;;;4.10;99.90;;;;;;5042324;28;20289;-82
2021/12/18 10:39:46;;;;;;;11.15;8.95;;;4.10;99.90;;;;;;5030231;28;20204;-82
2021/12/18 10:42:22;;;;;;;11.43;8.82;;;4.10;99.90;;;;;;5043695;28;20204;-81
2021/12/18 10:45:01;;;;;;;11.80;9.15;;;4.10;99.90;;;;;;5033846;28;20197;-82
2021/12/18 10:47:45;;;;;;;13.65;10.35;;;4.00;99.90;;;;;;5049458;28;20193;-82
2021/12/18 10:50:27;;;;;;;11.57;9.35;;;4.00;99.90;;;;;;5043531;28;20702;-82
2021/12/18 10:53:00;;;;;;;11.60;8.52;;;4.00;99.90;;;;;;5037268;28;20198;-82
2021/12/18 10:55:35;;;;;;;13.77;9.77;;;4.10;99.90;;;;;;5049939;28;20190;-82
2021/12/18 10:58:04;;;;;;;12.85;10.32;;;4.10;99.90;;;;;;5038699;28;20272;-82
2021/12/18 11:00:38;;;;;;;10.25;8.40;;;4.10;99.90;;;;;;5031043;28;20561;-82
2021/12/18 11:03:22;;;;;;;10.20;8.95;;;4.10;99.90;;;;;;5034203;28;20193;-81
2021/12/18 11:06:11;;;;;;;11.63;8.55;;;4.30;99.90;;;;;;5034714;28;20260;-82
2021/12/18 11:09:04;;;;;;;12.68;9.55;;;4.40;99.90;;;;;;5036487;28;20201;-82
2021/12/18 11:14:23;;;;;;;12.13;8.90;;;4.50;99.90;;;;;;5043907;28;20201;-83
2021/12/18 11:16:52;;;;;;;11.40;8.88;;;4.60;99.90;;;;;;5038951;28;20204;-82
2021/12/18 11:19:22;;;;;;;12.13;10.40;;;4.60;99.90;;;;;;5038454;28;21460;-82
2021/12/18 11:21:52;;;;;;;18.13;11.50;;;4.70;99.90;;;;;;5037496;28;20220;-82
2021/12/18 11:24:21;;;;;;;12.10;9.77;;;4.70;99.90;;;;;;5036552;28;20198;-81
2021/12/18 11:26:56;;;;;;;12.68;10.27;;;4.70;99.90;;;;;;5040777;28;20672;-82
2021/12/18 11:29:26;;;;;;;11.50;9.43;;;4.80;99.90;;;;;;5032937;28;20189;-83
2021/12/18 11:31:53;;;;;;;12.10;10.27;;;4.80;99.90;;;;;;5036567;28;20225;-83
2021/12/18 11:34:21;;;;;;;13.10;10.10;;;4.70;99.90;;;;;;5038915;28;20616;-82
2021/12/18 11:36:51;;;;;;;13.98;9.98;;;4.70;99.90;;;;;;5037868;28;20288;-82
2021/12/18 11:39:22;;;;;;;15.55;10.20;;;4.80;99.90;;;;;;5033552;28;20205;-82
2021/12/18 11:41:51;;;;;;;12.82;9.88;;;4.80;99.90;;;;;;5038386;28;20755;-81
2021/12/18 11:44:40;;;;;;;11.27;9.55;;;4.90;99.90;;;;;;5039629;28;20193;-82
2021/12/18 11:47:29;;;;;;;11.18;9.20;;;4.90;99.90;;;;;;5042815;28;20660;-82
2021/12/18 11:50:01;;;;;;;11.55;9.32;;;5.00;99.90;;;;;;5044001;28;20253;-81
2021/12/18 11:52:29;;;;;;;12.30;9.35;;;5.00;99.90;;;;;;5043055;28;20291;-81
2021/12/18 11:54:58;;;;;;;12.63;9.60;;;5.10;99.90;;;;;;5045634;28;20274;-81
2021/12/18 11:57:42;;;;;;;13.73;11.40;;;5.10;99.90;;;;;;5041580;28;20204;-77
2021/12/18 12:00:39;;;;;;;14.90;10.50;;;5.10;99.90;;;;;;5040534;28;20243;-82
2021/12/18 12:03:08;;;;;;;11.38;9.60;;;5.30;99.90;;;;;;5036290;28;20201;-86
2021/12/18 12:05:40;;;;;;;12.40;10.25;;;5.30;99.90;;;;;;5035004;28;20221;-80
2021/12/18 12:08:33;;;;;;;13.27;10.10;;;5.30;99.90;;;;;;5040771;28;20198;-82
2021/12/18 12:11:23;;;;;;;12.00;10.25;;;5.30;99.90;;;;;;5033634;28;20222;-80
2021/12/18 12:14:19;;;;;;;12.35;9.45;;;5.20;99.90;;;;;;5036441;28;20190;-80
2021/12/18 12:17:10;;;;;;;11.18;9.50;;;5.10;99.90;;;;;;5041489;28;20530;-82
2021/12/18 12:19:49;;;;;;;11.63;9.75;;;5.00;99.90;;;;;;5032993;28;20216;-82
2021/12/18 12:22:53;;;;;;;12.98;10.10;;;4.90;99.90;;;;;;5032517;28;20197;-81
2021/12/18 12:25:41;;;;;;;11.32;9.65;;;4.80;99.90;;;;;;5039525;28;20198;-82
2021/12/18 12:28:25;;;;;;;10.45;8.98;;;4.80;99.90;;;;;;5038720;28;20197;-82
2021/12/18 12:31:07;;;;;;;11.00;9.60;;;4.90;99.90;;;;;;5045120;28;20219;-82
2021/12/18 12:33:36;;;;;;;12.70;9.45;;;4.90;99.90;;;;;;5047049;28;20283;-82
2021/12/18 12:36:07;;;;;;;12.45;10.30;;;4.90;99.90;;;;;;5039107;28;20197;-81
2021/12/18 12:38:39;;;;;;;12.73;10.15;;;4.90;99.90;;;;;;5048816;28;20292;-82
2021/12/18 12:41:31;;;;;;;11.50;9.95;;;4.90;99.90;;;;;;5039846;28;20213;-81
2021/12/18 12:44:01;;;;;;;10.30;8.90;;;4.90;99.90;;;;;;5038151;28;20621;-82
2021/12/18 12:46:30;;;;;;;12.02;9.10;;;5.00;99.90;;;;;;5040849;28;20284;-82
2021/12/18 12:49:18;;;;;;;12.63;9.25;;;4.90;99.90;;;;;;5041126;28;20193;-82
2021/12/18 12:52:09;;;;;;;11.63;9.75;;;4.80;99.90;;;;;;5034734;28;20221;-82
2021/12/18 12:54:55;;;;;;;10.23;8.85;;;4.80;99.90;;;;;;5043292;28;20209;-82
2021/12/18 12:57:41;;;;;;;10.85;8.75;;;4.90;99.90;;;;;;5039695;28;20652;-82
2021/12/18 13:00:51;;;;;;;10.00;8.90;;;4.80;99.90;;;;;;5044759;28;20228;-81
2021/12/18 13:03:37;;;;;;;11.70;9.13;;;4.80;99.90;;;;;;5044619;28;20291;-82
2021/12/18 13:06:15;;;;;;;13.48;9.20;;;4.90;99.90;;;;;;5043351;28;20584;-82
2021/12/18 13:08:44;;;;;;;11.27;9.98;;;4.90;99.90;;;;;;5040211;28;20555;-82
2021/12/18 13:11:22;;;;;;;10.38;8.77;;;4.90;99.90;;;;;;5032211;28;20214;-82
2021/12/18 13:13:51;;;;;;;11.68;9.10;;;5.00;99.90;;;;;;5036126;28;20562;-82
2021/12/18 13:16:20;;;;;;;11.07;9.90;;;5.10;99.90;;;;;;5044744;28;20204;-81
2021/12/18 13:18:50;;;;;;;10.18;8.23;;;5.30;99.90;;;;;;5042697;28;20189;-82
2021/12/18 13:21:19;;;;;;;10.20;9.10;;;5.30;99.90;;;;;;5060310;28;20315;-85
2021/12/18 13:23:56;;;;;;;10.65;9.63;;;5.40;99.90;;;;;;5063051;28;20197;-82
2021/12/18 13:26:30;;;;;;;9.93;8.50;;;5.40;99.90;;;;;;5037576;28;20597;-83
2021/12/18 13:29:00;;;;;;;11.07;9.88;;;5.20;99.90;;;;;;5039528;28;20193;-82
2021/12/18 13:31:29;;;;;;;9.70;8.77;;;5.10;99.90;;;;;;5024104;28;20638;-82